createdAt,value
2023-11-15T00:00:24.484Z,39.100000
2023-11-15T00:05:24.560Z,39.100000
2023-11-15T00:10:24.527Z,39.000000
2023-11-15T00:15:18.398Z,39.000000
2023-11-15T00:20:24.563Z,39.000000
2023-11-15T00:25:18.794Z,39.000000
2023-11-15T00:30:24.812Z,38.900000
2023-11-15T00:35:24.658Z,38.700000
2023-11-15T00:40:18.447Z,38.700000
2023-11-15T00:45:16.505Z,38.600000
2023-11-15T00:50:16.529Z,38.600000
2023-11-15T00:55:24.654Z,38.500000
2023-11-15T01:00:24.630Z,38.500000
2023-11-15T01:05:18.448Z,38.300000
2023-11-15T01:10:24.736Z,38.100000
2023-11-15T01:15:24.675Z,38.100000
2023-11-15T01:20:24.706Z,38.000000
2023-11-15T01:25:18.603Z,37.900000
2023-11-15T01:30:24.709Z,37.900000
2023-11-15T01:35:18.538Z,37.800000
2023-11-15T01:40:16.628Z,37.700000
2023-11-15T01:45:16.516Z,37.700000
2023-11-15T01:50:24.759Z,37.600000
2023-11-15T01:55:18.561Z,37.700000
2023-11-15T02:00:24.837Z,37.600000
2023-11-15T02:05:18.510Z,37.500000
2023-11-15T02:10:18.521Z,37.600000
2023-11-15T02:15:24.858Z,37.500000
2023-11-15T02:20:24.830Z,37.500000
2023-11-15T02:25:18.596Z,37.600000
2023-11-15T02:30:16.765Z,37.500000
2023-11-15T02:35:16.645Z,37.400000
2023-11-15T02:40:18.671Z,37.400000
2023-11-15T02:45:18.672Z,37.500000
2023-11-15T02:50:18.672Z,37.500000
2023-11-15T02:55:24.902Z,37.600000
2023-11-15T03:00:24.898Z,37.600000
2023-11-15T03:05:18.629Z,37.500000
2023-11-15T03:10:24.904Z,37.500000
2023-11-15T03:15:24.961Z,37.400000
2023-11-15T03:20:18.756Z,37.400000
2023-11-15T03:25:16.786Z,37.300000
2023-11-15T03:30:17.249Z,37.000000
2023-11-15T03:35:25.105Z,36.700000
2023-11-15T03:40:18.702Z,36.900000
2023-11-15T03:45:18.660Z,36.900000
2023-11-15T03:50:25.134Z,36.800000
2023-11-15T03:55:18.824Z,36.900000
2023-11-15T04:00:18.776Z,36.900000
2023-11-15T04:05:18.974Z,36.900000
2023-11-15T04:10:18.804Z,37.000000
2023-11-15T04:15:25.024Z,37.100000
2023-11-15T04:20:16.887Z,37.000000
2023-11-15T04:25:16.888Z,36.900000
2023-11-15T04:30:25.018Z,36.900000
2023-11-15T04:35:25.012Z,37.000000
2023-11-15T04:40:25.102Z,36.900000
2023-11-15T04:45:25.038Z,36.900000
2023-11-15T04:50:25.124Z,36.800000
2023-11-15T04:55:18.841Z,36.700000
2023-11-15T05:00:24.347Z,36.600000
2023-11-15T05:05:24.527Z,36.600000
2023-11-15T05:10:24.338Z,36.600000
2023-11-15T05:15:18.165Z,36.400000
2023-11-15T05:20:18.210Z,36.200000
2023-11-15T05:25:16.307Z,36.200000
2023-11-15T05:30:16.175Z,36.200000
2023-11-15T05:35:24.737Z,36.000000
2023-11-15T05:40:24.489Z,35.900000
2023-11-15T05:45:24.452Z,35.900000
2023-11-15T05:50:24.497Z,35.700000
2023-11-15T05:55:18.220Z,35.500000
2023-11-15T06:00:18.306Z,34.900000
2023-11-15T06:05:18.223Z,33.800000
2023-11-15T06:10:18.307Z,33.200000
2023-11-15T06:15:18.221Z,32.900000
2023-11-15T06:20:16.362Z,32.600000
2023-11-15T06:25:16.423Z,32.300000
2023-11-15T06:30:24.733Z,31.900000
2023-11-15T06:35:24.550Z,31.700000
2023-11-15T06:40:24.571Z,31.500000
2023-11-15T06:45:18.414Z,31.300000
2023-11-15T06:50:24.614Z,31.100000
2023-11-15T06:55:24.580Z,30.800000
2023-11-15T07:00:18.469Z,30.500000
2023-11-15T07:05:24.658Z,30.500000
2023-11-15T07:10:24.670Z,30.400000
2023-11-15T07:15:16.530Z,30.300000
2023-11-15T07:20:18.467Z,30.200000
2023-11-15T07:25:24.681Z,30.000000
2023-11-15T07:30:24.719Z,29.900000
2023-11-15T07:35:18.509Z,29.800000
2023-11-15T07:40:18.477Z,29.700000
2023-11-15T07:45:18.547Z,29.700000
2023-11-15T07:50:18.515Z,29.700000
2023-11-15T07:55:24.796Z,29.800000
2023-11-15T08:00:24.744Z,29.800000
2023-11-15T08:05:16.632Z,29.700000
2023-11-15T08:10:16.546Z,29.700000
2023-11-15T08:15:24.811Z,29.600000
2023-11-15T08:20:18.537Z,29.600000
2023-11-15T08:25:18.661Z,29.500000
2023-11-15T08:30:24.874Z,29.500000
2023-11-15T08:35:18.793Z,29.400000
2023-11-15T08:40:26.597Z,29.300000
2023-11-15T08:45:25.146Z,29.100000
2023-11-15T08:50:18.607Z,29.000000
2023-11-15T08:55:18.587Z,28.800000
2023-11-15T09:00:16.767Z,28.800000
2023-11-15T09:05:16.737Z,28.700000
2023-11-15T09:10:24.804Z,28.600000
2023-11-15T09:15:18.688Z,28.700000
2023-11-15T09:20:25.039Z,28.900000
2023-11-15T09:25:18.789Z,28.700000
2023-11-15T09:30:18.710Z,28.800000
2023-11-15T09:35:18.918Z,28.700000
2023-11-15T09:40:25.003Z,28.600000
2023-11-15T09:45:18.717Z,28.500000
2023-11-15T09:50:26.321Z,28.500000
2023-11-15T09:55:16.945Z,28.500000
2023-11-15T10:00:22.028Z,28.400000
2023-11-15T10:05:18.826Z,28.300000
2023-11-15T10:10:25.072Z,28.400000
2023-11-15T10:15:24.977Z,28.500000
2023-11-15T10:20:18.785Z,28.500000
2023-11-15T10:25:25.125Z,28.400000
2023-11-15T10:30:25.091Z,28.300000
2023-11-15T10:35:25.075Z,28.100000
2023-11-15T10:40:25.124Z,28.100000
2023-11-15T10:45:18.890Z,28.000000
2023-11-15T10:50:17.074Z,28.000000
2023-11-15T10:55:25.207Z,27.900000
2023-11-15T11:00:19.164Z,28.000000
2023-11-15T11:05:19.036Z,27.900000
2023-11-15T11:10:25.250Z,27.800000
2023-11-15T11:15:19.077Z,27.700000
2023-11-15T11:20:18.980Z,27.600000
2023-11-15T11:25:25.298Z,27.500000
2023-11-15T11:30:25.422Z,27.500000
2023-11-15T11:35:26.651Z,27.500000
2023-11-15T11:40:17.270Z,27.500000
2023-11-15T11:45:17.450Z,27.500000
2023-11-15T11:50:19.218Z,27.500000
2023-11-15T11:55:19.064Z,27.400000
2023-11-15T12:00:25.429Z,27.300000
2023-11-15T12:05:19.403Z,27.200000
2023-11-15T12:10:19.138Z,27.200000
2023-11-15T12:15:19.081Z,27.300000
2023-11-15T12:20:25.408Z,27.400000
2023-11-15T12:25:19.237Z,27.700000
2023-11-15T12:30:25.421Z,28.000000
2023-11-15T12:35:17.474Z,28.400000
2023-11-15T12:40:17.252Z,28.700000
2023-11-15T12:45:19.187Z,29.100000
2023-11-15T12:50:19.231Z,29.300000
2023-11-15T12:55:25.440Z,29.600000
2023-11-15T13:00:25.534Z,30.700000
2023-11-15T13:05:25.520Z,31.700000
2023-11-15T13:10:25.458Z,32.500000
2023-11-15T13:15:25.625Z,32.100000
2023-11-15T13:20:25.691Z,32.100000
2023-11-15T13:25:19.437Z,32.200000
2023-11-15T13:30:17.380Z,32.400000
2023-11-15T13:35:25.622Z,32.800000
2023-11-15T13:40:19.475Z,33.200000
2023-11-15T13:45:19.336Z,33.500000
2023-11-15T13:50:25.749Z,33.800000
2023-11-15T13:55:25.647Z,34.100000
2023-11-15T14:00:19.452Z,34.600000
2023-11-15T14:05:19.411Z,35.100000
2023-11-15T14:10:25.744Z,35.500000
2023-11-15T14:15:25.624Z,36.000000
2023-11-15T14:20:17.507Z,36.600000
2023-11-15T14:25:17.507Z,37.200000
2023-11-15T14:30:19.585Z,37.700000
2023-11-15T14:35:25.814Z,38.100000
2023-11-15T14:40:25.671Z,38.600000
2023-11-15T14:45:23.826Z,39.000000
2023-11-15T14:50:17.524Z,39.300000
2023-11-15T14:55:17.547Z,39.700000
2023-11-15T15:00:15.493Z,40.100000
2023-11-15T15:05:15.649Z,40.300000
2023-11-15T15:10:23.838Z,40.600000
2023-11-15T15:15:17.748Z,41.300000
2023-11-15T15:20:17.546Z,41.700000
2023-11-15T15:25:23.905Z,42.100000
2023-11-15T15:30:23.769Z,42.200000
2023-11-15T15:35:17.587Z,42.400000
2023-11-15T15:40:17.616Z,42.400000
2023-11-15T15:45:17.570Z,42.400000
2023-11-15T15:50:17.631Z,42.500000
2023-11-15T15:55:15.690Z,42.800000
2023-11-15T16:00:24.205Z,42.600000
2023-11-15T16:05:24.052Z,43.000000
2023-11-15T16:10:17.601Z,43.300000
2023-11-15T16:15:18.340Z,43.500000
2023-11-15T16:20:17.628Z,43.700000
2023-11-15T16:25:17.715Z,43.800000
2023-11-15T16:30:17.805Z,44.100000
2023-11-15T16:35:23.991Z,44.300000
2023-11-15T16:40:17.749Z,44.400000
2023-11-15T16:45:15.855Z,44.600000
2023-11-15T16:50:15.818Z,44.900000
2023-11-15T16:55:24.010Z,44.800000
2023-11-15T17:00:24.036Z,45.000000
2023-11-15T17:05:17.823Z,45.000000
2023-11-15T17:10:17.795Z,44.700000
2023-11-15T17:15:17.979Z,44.800000
2023-11-15T17:20:17.872Z,44.900000
2023-11-15T17:25:23.993Z,44.900000
2023-11-15T17:30:24.088Z,45.000000
2023-11-15T17:35:24.028Z,45.300000
2023-11-15T17:40:15.972Z,45.400000
2023-11-15T17:45:17.917Z,45.400000
2023-11-15T17:50:19.457Z,45.200000
2023-11-15T17:55:24.062Z,45.300000
2023-11-15T18:00:17.894Z,45.400000
2023-11-15T18:05:17.886Z,45.300000
2023-11-15T18:10:24.157Z,45.400000
2023-11-15T18:15:24.137Z,45.500000
2023-11-15T18:20:17.913Z,45.600000
2023-11-15T18:25:24.363Z,45.500000
2023-11-15T18:30:16.037Z,45.600000
2023-11-15T18:35:16.073Z,45.600000
2023-11-15T18:40:24.289Z,45.500000
2023-11-15T18:45:18.112Z,45.700000
2023-11-15T18:50:24.316Z,45.600000
2023-11-15T18:55:24.269Z,45.600000
2023-11-15T19:00:24.375Z,45.700000
2023-11-15T19:05:24.313Z,45.800000
2023-11-15T19:10:18.355Z,45.900000
2023-11-15T19:15:24.421Z,46.000000
2023-11-15T19:20:18.071Z,46.000000
2023-11-15T19:25:16.171Z,46.100000
2023-11-15T19:30:16.133Z,46.000000
2023-11-15T19:35:24.342Z,46.000000
2023-11-15T19:40:24.425Z,46.100000
2023-11-15T19:45:24.363Z,46.200000
2023-11-15T19:50:24.356Z,46.300000
2023-11-15T19:55:18.159Z,46.300000
2023-11-15T20:00:24.344Z,46.400000
2023-11-15T20:05:24.368Z,46.300000
2023-11-15T20:10:26.330Z,46.300000
2023-11-15T20:15:16.306Z,46.100000
2023-11-15T20:20:16.640Z,46.100000
2023-11-15T20:25:18.274Z,46.000000
2023-11-15T20:30:24.515Z,45.900000
2023-11-15T20:35:24.390Z,45.700000
2023-11-15T20:40:24.447Z,45.500000
2023-11-15T20:45:18.230Z,45.400000
2023-11-15T20:50:18.301Z,45.200000
2023-11-15T20:55:24.496Z,44.900000
2023-11-15T21:00:24.515Z,44.700000
2023-11-15T21:05:18.317Z,44.300000
2023-11-15T21:10:16.225Z,44.000000
2023-11-15T21:15:16.399Z,43.700000
2023-11-15T21:20:24.544Z,43.500000
2023-11-15T21:25:24.543Z,43.300000
2023-11-15T21:30:18.378Z,42.900000
2023-11-15T21:35:24.652Z,42.600000
2023-11-15T21:40:18.334Z,42.300000
2023-11-15T21:45:18.462Z,41.900000
2023-11-15T21:50:24.595Z,41.600000
2023-11-15T21:55:24.574Z,41.200000
2023-11-15T22:00:18.415Z,41.000000
2023-11-15T22:05:16.432Z,40.700000
2023-11-15T22:10:18.389Z,40.600000
2023-11-15T22:15:24.620Z,40.900000
2023-11-15T22:20:24.624Z,41.100000
2023-11-15T22:25:24.626Z,41.000000
2023-11-15T22:30:18.422Z,41.000000
2023-11-15T22:35:18.427Z,41.300000
2023-11-15T22:40:24.650Z,41.600000
2023-11-15T22:45:24.733Z,42.100000
2023-11-15T22:50:18.515Z,42.200000
2023-11-15T22:55:16.445Z,42.000000
2023-11-15T23:00:16.523Z,42.000000
2023-11-15T23:05:24.705Z,42.000000
2023-11-15T23:10:18.488Z,42.000000
2023-11-15T23:15:24.828Z,41.800000
2023-11-15T23:20:24.779Z,41.600000
2023-11-15T23:25:24.752Z,41.600000
2023-11-15T23:30:18.526Z,41.400000
2023-11-15T23:35:18.615Z,41.200000
2023-11-15T23:40:24.868Z,41.100000
2023-11-15T23:45:24.917Z,41.100000
2023-11-15T23:50:16.808Z,41.000000
2023-11-15T23:55:16.677Z,40.900000
